sensor_id;sensor_type;location;lat;lon;timestamp;temperature;humidity
9658;DHT22;4867;48.112;11.622;2022-07-06T00:01:53;18.10;99.90
9658;DHT22;4867;48.112;11.622;2022-07-06T00:04:20;18.10;99.90
9658;DHT22;4867;48.112;11.622;2022-07-06T00:06:47;18.10;99.90
9658;DHT22;4867;48.112;11.622;2022-07-06T00:09:15;18.10;99.90
9658;DHT22;4867;48.112;11.622;2022-07-06T00:11:42;18.00;99.90
9658;DHT22;4867;48.112;11.622;2022-07-06T00:14:09;18.00;99.90
9658;DHT22;4867;48.112;11.622;2022-07-06T00:16:36;18.00;99.90
9658;DHT22;4867;48.112;11.622;2022-07-06T00:19:03;18.00;99.90
9658;DHT22;4867;48.112;11.622;2022-07-06T00:21:30;18.00;99.90
9658;DHT22;4867;48.112;11.622;2022-07-06T00:23:57;17.90;99.90
9658;DHT22;4867;48.112;11.622;2022-07-06T00:26:23;18.00;99.90
9658;DHT22;4867;48.112;11.622;2022-07-06T00:28:50;18.00;99.90
9658;DHT22;4867;48.112;11.622;2022-07-06T00:31:17;18.00;99.90
9658;DHT22;4867;48.112;11.622;2022-07-06T00:33:44;17.90;99.90
9658;DHT22;4867;48.112;11.622;2022-07-06T00:36:11;17.90;99.90
9658;DHT22;4867;48.112;11.622;2022-07-06T00:38:38;17.80;99.90
9658;DHT22;4867;48.112;11.622;2022-07-06T00:41:05;17.80;99.90
9658;DHT22;4867;48.112;11.622;2022-07-06T00:43:52;17.70;99.90
9658;DHT22;4867;48.112;11.622;2022-07-06T00:46:30;17.70;99.90
9658;DHT22;4867;48.112;11.622;2022-07-06T00:48:59;17.50;99.90
9658;DHT22;4867;48.112;11.622;2022-07-06T00:51:31;17.60;99.90
9658;DHT22;4867;48.112;11.622;2022-07-06T00:54:02;17.60;99.90
9658;DHT22;4867;48.112;11.622;2022-07-06T00:56:30;17.50;99.90
9658;DHT22;4867;48.112;11.622;2022-07-06T00:59:00;17.50;99.90
9658;DHT22;4867;48.112;11.622;2022-07-06T01:01:27;17.40;99.90
9658;DHT22;4867;48.112;11.622;2022-07-06T01:03:54;17.40;99.90
9658;DHT22;4867;48.112;11.622;2022-07-06T01:06:21;17.40;99.90
9658;DHT22;4867;48.112;11.622;2022-07-06T01:08:48;17.30;99.90
9658;DHT22;4867;48.112;11.622;2022-07-06T01:11:17;17.40;99.90
9658;DHT22;4867;48.112;11.622;2022-07-06T01:13:45;17.40;99.90
9658;DHT22;4867;48.112;11.622;2022-07-06T01:16:12;17.40;99.90
9658;DHT22;4867;48.112;11.622;2022-07-06T01:18:39;17.40;99.90
9658;DHT22;4867;48.112;11.622;2022-07-06T01:21:11;17.40;99.90
9658;DHT22;4867;48.112;11.622;2022-07-06T01:23:43;17.40;99.90
9658;DHT22;4867;48.112;11.622;2022-07-06T01:26:17;17.40;99.90
9658;DHT22;4867;48.112;11.622;2022-07-06T01:28:50;17.40;99.90
9658;DHT22;4867;48.112;11.622;2022-07-06T01:31:19;17.40;99.90
9658;DHT22;4867;48.112;11.622;2022-07-06T01:33:51;17.30;99.90
9658;DHT22;4867;48.112;11.622;2022-07-06T01:36:19;17.30;99.90
9658;DHT22;4867;48.112;11.622;2022-07-06T01:38:54;17.20;99.90
9658;DHT22;4867;48.112;11.622;2022-07-06T01:41:21;17.20;99.90
9658;DHT22;4867;48.112;11.622;2022-07-06T01:43:48;17.20;99.90
9658;DHT22;4867;48.112;11.622;2022-07-06T01:46:15;17.10;99.90
9658;DHT22;4867;48.112;11.622;2022-07-06T01:48:43;17.10;99.90
9658;DHT22;4867;48.112;11.622;2022-07-06T01:51:10;17.10;99.90
9658;DHT22;4867;48.112;11.622;2022-07-06T01:53:39;17.00;99.90
9658;DHT22;4867;48.112;11.622;2022-07-06T01:56:07;17.00;99.90
9658;DHT22;4867;48.112;11.622;2022-07-06T01:58:34;16.90;99.90
9658;DHT22;4867;48.112;11.622;2022-07-06T02:01:10;17.00;99.90
9658;DHT22;4867;48.112;11.622;2022-07-06T02:03:37;16.80;99.90
9658;DHT22;4867;48.112;11.622;2022-07-06T02:06:06;16.70;99.90
9658;DHT22;4867;48.112;11.622;2022-07-06T02:08:34;16.70;99.90
9658;DHT22;4867;48.112;11.622;2022-07-06T02:11:02;16.70;99.90
9658;DHT22;4867;48.112;11.622;2022-07-06T02:13:30;16.60;99.90
9658;DHT22;4867;48.112;11.622;2022-07-06T02:15:57;16.60;99.90
9658;DHT22;4867;48.112;11.622;2022-07-06T02:18:25;16.60;99.90
9658;DHT22;4867;48.112;11.622;2022-07-06T02:20:53;16.50;99.90
9658;DHT22;4867;48.112;11.622;2022-07-06T02:23:20;16.50;99.90
9658;DHT22;4867;48.112;11.622;2022-07-06T02:25:47;16.50;99.90
9658;DHT22;4867;48.112;11.622;2022-07-06T02:28:14;16.50;99.90
9658;DHT22;4867;48.112;11.622;2022-07-06T02:30:41;16.40;99.90
9658;DHT22;4867;48.112;11.622;2022-07-06T02:33:10;16.40;99.90
9658;DHT22;4867;48.112;11.622;2022-07-06T02:35:37;16.40;99.90
9658;DHT22;4867;48.112;11.622;2022-07-06T02:38:10;16.30;99.90
9658;DHT22;4867;48.112;11.622;2022-07-06T02:40:37;16.30;99.90
9658;DHT22;4867;48.112;11.622;2022-07-06T02:43:05;16.20;99.90
9658;DHT22;4867;48.112;11.622;2022-07-06T02:45:34;16.30;99.90
9658;DHT22;4867;48.112;11.622;2022-07-06T02:48:02;16.10;99.90
9658;DHT22;4867;48.112;11.622;2022-07-06T02:50:29;16.20;99.90
9658;DHT22;4867;48.112;11.622;2022-07-06T02:52:56;16.30;99.90
9658;DHT22;4867;48.112;11.622;2022-07-06T02:55:25;16.30;99.90
9658;DHT22;4867;48.112;11.622;2022-07-06T02:57:53;16.30;99.90
9658;DHT22;4867;48.112;11.622;2022-07-06T03:00:21;16.20;99.90
9658;DHT22;4867;48.112;11.622;2022-07-06T03:02:50;16.20;99.90
9658;DHT22;4867;48.112;11.622;2022-07-06T03:05:17;16.30;99.90
9658;DHT22;4867;48.112;11.622;2022-07-06T03:07:46;16.30;99.90
9658;DHT22;4867;48.112;11.622;2022-07-06T03:10:13;16.20;99.90
9658;DHT22;4867;48.112;11.622;2022-07-06T03:12:41;16.20;99.90
9658;DHT22;4867;48.112;11.622;2022-07-06T03:15:08;16.10;99.90
9658;DHT22;4867;48.112;11.622;2022-07-06T03:17:42;16.10;99.90
9658;DHT22;4867;48.112;11.622;2022-07-06T03:20:11;16.20;99.90
9658;DHT22;4867;48.112;11.622;2022-07-06T03:22:39;16.10;99.90
9658;DHT22;4867;48.112;11.622;2022-07-06T03:25:06;16.10;99.90
9658;DHT22;4867;48.112;11.622;2022-07-06T03:27:35;16.00;99.90
9658;DHT22;4867;48.112;11.622;2022-07-06T03:30:03;16.00;99.90
9658;DHT22;4867;48.112;11.622;2022-07-06T03:32:33;16.00;99.90
9658;DHT22;4867;48.112;11.622;2022-07-06T03:35:02;15.90;99.90
9658;DHT22;4867;48.112;11.622;2022-07-06T03:37:31;16.00;99.90
9658;DHT22;4867;48.112;11.622;2022-07-06T03:39:59;16.00;99.90
9658;DHT22;4867;48.112;11.622;2022-07-06T03:42:26;16.00;99.90
9658;DHT22;4867;48.112;11.622;2022-07-06T03:44:53;15.90;99.90
9658;DHT22;4867;48.112;11.622;2022-07-06T03:47:20;16.00;99.90
9658;DHT22;4867;48.112;11.622;2022-07-06T03:49:48;16.10;99.90
9658;DHT22;4867;48.112;11.622;2022-07-06T03:52:15;16.30;99.90
9658;DHT22;4867;48.112;11.622;2022-07-06T03:54:49;16.90;99.90
9658;DHT22;4867;48.112;11.622;2022-07-06T03:57:21;17.50;99.90
9658;DHT22;4867;48.112;11.622;2022-07-06T03:59:48;18.00;99.90
9658;DHT22;4867;48.112;11.622;2022-07-06T04:02:16;18.40;99.90
9658;DHT22;4867;48.112;11.622;2022-07-06T04:04:43;18.70;99.90
9658;DHT22;4867;48.112;11.622;2022-07-06T04:07:11;19.10;99.90
9658;DHT22;4867;48.112;11.622;2022-07-06T04:09:38;19.50;99.90
9658;DHT22;4867;48.112;11.622;2022-07-06T04:12:05;19.80;99.90
9658;DHT22;4867;48.112;11.622;2022-07-06T04:14:32;20.10;99.90
9658;DHT22;4867;48.112;11.622;2022-07-06T04:16:59;20.40;99.90
9658;DHT22;4867;48.112;11.622;2022-07-06T04:19:46;20.40;99.90
9658;DHT22;4867;48.112;11.622;2022-07-06T04:22:15;20.30;99.90
9658;DHT22;4867;48.112;11.622;2022-07-06T04:24:43;20.20;99.90
9658;DHT22;4867;48.112;11.622;2022-07-06T04:27:10;20.10;99.90
9658;DHT22;4867;48.112;11.622;2022-07-06T04:29:37;19.70;99.90
9658;DHT22;4867;48.112;11.622;2022-07-06T04:32:05;19.40;99.90
9658;DHT22;4867;48.112;11.622;2022-07-06T04:34:32;19.10;99.90
9658;DHT22;4867;48.112;11.622;2022-07-06T04:36:59;18.80;99.90
9658;DHT22;4867;48.112;11.622;2022-07-06T04:39:26;18.60;99.90
9658;DHT22;4867;48.112;11.622;2022-07-06T04:41:54;18.40;99.90
9658;DHT22;4867;48.112;11.622;2022-07-06T04:44:22;18.30;99.90
9658;DHT22;4867;48.112;11.622;2022-07-06T04:46:49;18.20;99.90
9658;DHT22;4867;48.112;11.622;2022-07-06T04:49:16;18.20;99.90
9658;DHT22;4867;48.112;11.622;2022-07-06T04:51:43;18.10;99.90
9658;DHT22;4867;48.112;11.622;2022-07-06T04:54:10;18.10;99.90
9658;DHT22;4867;48.112;11.622;2022-07-06T04:56:37;18.10;99.90
9658;DHT22;4867;48.112;11.622;2022-07-06T04:59:05;18.20;99.90
9658;DHT22;4867;48.112;11.622;2022-07-06T05:01:32;18.50;99.90
9658;DHT22;4867;48.112;11.622;2022-07-06T05:03:59;18.70;99.90
9658;DHT22;4867;48.112;11.622;2022-07-06T05:06:27;18.60;99.90
9658;DHT22;4867;48.112;11.622;2022-07-06T05:08:54;18.60;99.90
9658;DHT22;4867;48.112;11.622;2022-07-06T05:11:22;18.50;99.90
9658;DHT22;4867;48.112;11.622;2022-07-06T05:13:50;18.90;99.90
9658;DHT22;4867;48.112;11.622;2022-07-06T05:16:17;19.70;99.90
9658;DHT22;4867;48.112;11.622;2022-07-06T05:18:44;20.10;99.90
9658;DHT22;4867;48.112;11.622;2022-07-06T05:21:12;20.20;99.90
9658;DHT22;4867;48.112;11.622;2022-07-06T05:23:39;20.70;99.90
9658;DHT22;4867;48.112;11.622;2022-07-06T05:26:06;21.00;99.90
9658;DHT22;4867;48.112;11.622;2022-07-06T05:28:33;21.20;99.90
9658;DHT22;4867;48.112;11.622;2022-07-06T05:31:05;21.00;99.90
9658;DHT22;4867;48.112;11.622;2022-07-06T05:33:32;21.00;99.90
9658;DHT22;4867;48.112;11.622;2022-07-06T05:36:00;21.00;99.90
9658;DHT22;4867;48.112;11.622;2022-07-06T05:38:28;20.80;99.90
9658;DHT22;4867;48.112;11.622;2022-07-06T05:40:55;20.70;99.90
9658;DHT22;4867;48.112;11.622;2022-07-06T05:43:22;20.60;99.90
9658;DHT22;4867;48.112;11.622;2022-07-06T05:45:50;20.60;99.90
9658;DHT22;4867;48.112;11.622;2022-07-06T05:48:20;20.40;99.90
9658;DHT22;4867;48.112;11.622;2022-07-06T05:51:06;20.40;99.90
9658;DHT22;4867;48.112;11.622;2022-07-06T05:53:33;20.30;99.90
9658;DHT22;4867;48.112;11.622;2022-07-06T05:56:00;20.30;99.90
9658;DHT22;4867;48.112;11.622;2022-07-06T05:58:30;20.20;99.90
9658;DHT22;4867;48.112;11.622;2022-07-06T06:00:58;20.20;99.90
9658;DHT22;4867;48.112;11.622;2022-07-06T06:03:25;20.20;99.90
9658;DHT22;4867;48.112;11.622;2022-07-06T06:05:52;20.10;99.90
9658;DHT22;4867;48.112;11.622;2022-07-06T06:08:20;20.10;99.90
9658;DHT22;4867;48.112;11.622;2022-07-06T06:10:50;20.20;99.90
9658;DHT22;4867;48.112;11.622;2022-07-06T06:13:19;20.20;99.90
9658;DHT22;4867;48.112;11.622;2022-07-06T06:15:46;20.10;99.90
9658;DHT22;4867;48.112;11.622;2022-07-06T06:18:14;20.00;99.90
9658;DHT22;4867;48.112;11.622;2022-07-06T06:20:45;20.10;99.90
9658;DHT22;4867;48.112;11.622;2022-07-06T06:23:11;20.20;99.90
9658;DHT22;4867;48.112;11.622;2022-07-06T06:25:39;20.30;99.90
9658;DHT22;4867;48.112;11.622;2022-07-06T06:28:08;20.40;99.90
9658;DHT22;4867;48.112;11.622;2022-07-06T06:30:36;20.40;99.90
9658;DHT22;4867;48.112;11.622;2022-07-06T06:33:08;20.40;99.90
9658;DHT22;4867;48.112;11.622;2022-07-06T06:35:36;20.60;99.90
9658;DHT22;4867;48.112;11.622;2022-07-06T06:38:03;20.70;99.90
9658;DHT22;4867;48.112;11.622;2022-07-06T06:40:30;20.60;99.90
9658;DHT22;4867;48.112;11.622;2022-07-06T06:42:57;20.70;99.90
9658;DHT22;4867;48.112;11.622;2022-07-06T06:45:24;20.70;99.90
9658;DHT22;4867;48.112;11.622;2022-07-06T06:47:51;20.60;99.90
9658;DHT22;4867;48.112;11.622;2022-07-06T06:50:18;20.70;99.90
9658;DHT22;4867;48.112;11.622;2022-07-06T06:52:45;20.80;99.90
9658;DHT22;4867;48.112;11.622;2022-07-06T06:55:12;20.80;99.90
9658;DHT22;4867;48.112;11.622;2022-07-06T06:57:39;20.70;99.90
9658;DHT22;4867;48.112;11.622;2022-07-06T07:00:07;20.80;99.90
9658;DHT22;4867;48.112;11.622;2022-07-06T07:02:34;20.80;99.90
9658;DHT22;4867;48.112;11.622;2022-07-06T07:05:02;20.60;99.90
9658;DHT22;4867;48.112;11.622;2022-07-06T07:07:29;20.50;99.90
9658;DHT22;4867;48.112;11.622;2022-07-06T07:09:56;20.50;99.90
9658;DHT22;4867;48.112;11.622;2022-07-06T07:12:22;20.60;99.90
9658;DHT22;4867;48.112;11.622;2022-07-06T07:14:50;20.80;99.90
9658;DHT22;4867;48.112;11.622;2022-07-06T07:17:16;21.00;99.90
9658;DHT22;4867;48.112;11.622;2022-07-06T07:19:43;20.90;99.90
9658;DHT22;4867;48.112;11.622;2022-07-06T07:22:10;20.80;99.90
9658;DHT22;4867;48.112;11.622;2022-07-06T07:24:37;21.10;99.90
9658;DHT22;4867;48.112;11.622;2022-07-06T07:27:04;21.20;99.90
9658;DHT22;4867;48.112;11.622;2022-07-06T07:29:31;21.10;99.90
9658;DHT22;4867;48.112;11.622;2022-07-06T07:31:58;21.10;99.90
9658;DHT22;4867;48.112;11.622;2022-07-06T07:34:25;21.30;99.90
9658;DHT22;4867;48.112;11.622;2022-07-06T07:36:52;21.40;99.90
9658;DHT22;4867;48.112;11.622;2022-07-06T07:39:18;21.60;99.90
9658;DHT22;4867;48.112;11.622;2022-07-06T07:41:45;21.80;99.90
9658;DHT22;4867;48.112;11.622;2022-07-06T07:44:12;22.00;99.90
9658;DHT22;4867;48.112;11.622;2022-07-06T07:46:39;22.10;99.90
9658;DHT22;4867;48.112;11.622;2022-07-06T07:49:06;22.00;99.90
9658;DHT22;4867;48.112;11.622;2022-07-06T07:51:35;22.20;99.90
9658;DHT22;4867;48.112;11.622;2022-07-06T07:54:01;22.20;99.90
9658;DHT22;4867;48.112;11.622;2022-07-06T07:56:28;22.30;99.90
9658;DHT22;4867;48.112;11.622;2022-07-06T07:58:55;22.10;99.90
9658;DHT22;4867;48.112;11.622;2022-07-06T08:01:27;22.10;99.90
9658;DHT22;4867;48.112;11.622;2022-07-06T08:03:54;22.30;99.90
9658;DHT22;4867;48.112;11.622;2022-07-06T08:06:21;22.30;99.90
9658;DHT22;4867;48.112;11.622;2022-07-06T08:08:48;22.20;99.90
9658;DHT22;4867;48.112;11.622;2022-07-06T08:11:15;22.30;99.90
9658;DHT22;4867;48.112;11.622;2022-07-06T08:13:44;22.40;99.90
9658;DHT22;4867;48.112;11.622;2022-07-06T08:16:11;22.50;99.90
9658;DHT22;4867;48.112;11.622;2022-07-06T08:18:38;22.60;99.90
9658;DHT22;4867;48.112;11.622;2022-07-06T08:21:06;22.50;99.90
9658;DHT22;4867;48.112;11.622;2022-07-06T08:23:54;22.60;99.90
9658;DHT22;4867;48.112;11.622;2022-07-06T08:26:22;22.20;99.90
9658;DHT22;4867;48.112;11.622;2022-07-06T08:28:48;22.00;99.90
9658;DHT22;4867;48.112;11.622;2022-07-06T08:31:15;22.10;99.90
9658;DHT22;4867;48.112;11.622;2022-07-06T08:34:03;22.20;99.90
9658;DHT22;4867;48.112;11.622;2022-07-06T08:36:30;22.40;99.90
9658;DHT22;4867;48.112;11.622;2022-07-06T08:38:57;22.50;99.90
9658;DHT22;4867;48.112;11.622;2022-07-06T08:41:27;22.60;99.90
9658;DHT22;4867;48.112;11.622;2022-07-06T08:43:55;22.60;99.90
9658;DHT22;4867;48.112;11.622;2022-07-06T08:46:22;22.60;99.90
9658;DHT22;4867;48.112;11.622;2022-07-06T08:48:49;22.70;99.90
9658;DHT22;4867;48.112;11.622;2022-07-06T08:51:18;22.70;99.90
9658;DHT22;4867;48.112;11.622;2022-07-06T08:53:51;23.00;99.90
9658;DHT22;4867;48.112;11.622;2022-07-06T08:56:19;23.00;99.90
9658;DHT22;4867;48.112;11.622;2022-07-06T08:58:46;23.20;99.90
9658;DHT22;4867;48.112;11.622;2022-07-06T09:01:13;23.20;99.90
9658;DHT22;4867;48.112;11.622;2022-07-06T09:03:45;23.30;99.90
9658;DHT22;4867;48.112;11.622;2022-07-06T09:06:26;23.40;99.90
9658;DHT22;4867;48.112;11.622;2022-07-06T09:08:56;23.40;99.90
9658;DHT22;4867;48.112;11.622;2022-07-06T09:11:23;23.50;99.90
9658;DHT22;4867;48.112;11.622;2022-07-06T09:13:52;23.30;99.90
9658;DHT22;4867;48.112;11.622;2022-07-06T09:16:26;23.30;99.90
9658;DHT22;4867;48.112;11.622;2022-07-06T09:19:06;23.00;99.90
9658;DHT22;4867;48.112;11.622;2022-07-06T09:21:34;22.90;99.90
9658;DHT22;4867;48.112;11.622;2022-07-06T09:24:11;23.00;99.90
9658;DHT22;4867;48.112;11.622;2022-07-06T09:26:39;23.20;99.90
9658;DHT22;4867;48.112;11.622;2022-07-06T09:29:07;23.00;99.90
9658;DHT22;4867;48.112;11.622;2022-07-06T09:31:34;23.20;99.90
9658;DHT22;4867;48.112;11.622;2022-07-06T09:34:04;23.00;99.90
9658;DHT22;4867;48.112;11.622;2022-07-06T09:36:46;23.10;99.90
9658;DHT22;4867;48.112;11.622;2022-07-06T09:39:25;23.20;99.90
9658;DHT22;4867;48.112;11.622;2022-07-06T09:42:00;23.40;99.90
9658;DHT22;4867;48.112;11.622;2022-07-06T09:44:32;23.60;99.90
9658;DHT22;4867;48.112;11.622;2022-07-06T09:47:01;23.50;99.90
9658;DHT22;4867;48.112;11.622;2022-07-06T09:49:30;23.40;99.90
9658;DHT22;4867;48.112;11.622;2022-07-06T09:51:59;23.30;99.90
9658;DHT22;4867;48.112;11.622;2022-07-06T09:54:27;23.10;99.90
9658;DHT22;4867;48.112;11.622;2022-07-06T09:56:55;23.40;99.90
9658;DHT22;4867;48.112;11.622;2022-07-06T09:59:27;23.40;99.90
9658;DHT22;4867;48.112;11.622;2022-07-06T10:01:58;23.60;99.90
9658;DHT22;4867;48.112;11.622;2022-07-06T10:04:26;23.90;99.90
9658;DHT22;4867;48.112;11.622;2022-07-06T10:06:55;24.10;99.90
9658;DHT22;4867;48.112;11.622;2022-07-06T10:09:24;24.10;99.90
9658;DHT22;4867;48.112;11.622;2022-07-06T10:11:53;24.30;99.90
9658;DHT22;4867;48.112;11.622;2022-07-06T10:14:23;24.50;99.90
9658;DHT22;4867;48.112;11.622;2022-07-06T10:16:51;24.50;99.90
9658;DHT22;4867;48.112;11.622;2022-07-06T10:19:19;24.30;99.90
9658;DHT22;4867;48.112;11.622;2022-07-06T10:21:48;24.30;99.90
9658;DHT22;4867;48.112;11.622;2022-07-06T10:24:15;24.30;99.90
9658;DHT22;4867;48.112;11.622;2022-07-06T10:26:43;24.50;99.90
9658;DHT22;4867;48.112;11.622;2022-07-06T10:29:09;24.50;99.90
9658;DHT22;4867;48.112;11.622;2022-07-06T10:31:39;24.40;99.90
9658;DHT22;4867;48.112;11.622;2022-07-06T10:34:10;24.40;99.90
9658;DHT22;4867;48.112;11.622;2022-07-06T10:36:38;24.60;99.90
9658;DHT22;4867;48.112;11.622;2022-07-06T10:39:06;24.50;99.90
9658;DHT22;4867;48.112;11.622;2022-07-06T10:41:51;24.80;99.90
9658;DHT22;4867;48.112;11.622;2022-07-06T10:44:24;24.40;99.90
9658;DHT22;4867;48.112;11.622;2022-07-06T10:49:20;24.70;99.90
9658;DHT22;4867;48.112;11.622;2022-07-06T10:52:07;24.80;99.90
9658;DHT22;4867;48.112;11.622;2022-07-06T10:54:39;24.50;99.90
9658;DHT22;4867;48.112;11.622;2022-07-06T10:57:13;24.80;99.90
9658;DHT22;4867;48.112;11.622;2022-07-06T11:00:00;24.40;99.40
9658;DHT22;4867;48.112;11.622;2022-07-06T11:02:38;24.10;99.90
9658;DHT22;4867;48.112;11.622;2022-07-06T11:05:11;24.40;99.90
9658;DHT22;4867;48.112;11.622;2022-07-06T11:07:51;24.70;99.10
9658;DHT22;4867;48.112;11.622;2022-07-06T11:10:18;25.00;99.70
9658;DHT22;4867;48.112;11.622;2022-07-06T11:12:59;25.30;99.90
9658;DHT22;4867;48.112;11.622;2022-07-06T11:15:48;25.40;99.10
9658;DHT22;4867;48.112;11.622;2022-07-06T11:18:19;25.10;96.50
9658;DHT22;4867;48.112;11.622;2022-07-06T11:21:14;25.00;98.10
9658;DHT22;4867;48.112;11.622;2022-07-06T11:23:42;25.20;98.90
9658;DHT22;4867;48.112;11.622;2022-07-06T11:26:10;25.40;98.00
9658;DHT22;4867;48.112;11.622;2022-07-06T11:28:38;25.40;98.10
9658;DHT22;4867;48.112;11.622;2022-07-06T11:31:05;25.20;96.60
9658;DHT22;4867;48.112;11.622;2022-07-06T11:33:32;25.30;98.10
9658;DHT22;4867;48.112;11.622;2022-07-06T11:38:43;25.40;97.30
9658;DHT22;4867;48.112;11.622;2022-07-06T11:41:10;25.60;98.50
9658;DHT22;4867;48.112;11.622;2022-07-06T11:43:44;25.90;97.90
9658;DHT22;4867;48.112;11.622;2022-07-06T11:46:22;25.90;97.10
9658;DHT22;4867;48.112;11.622;2022-07-06T11:48:51;26.10;97.60
9658;DHT22;4867;48.112;11.622;2022-07-06T11:51:19;26.10;95.80
9658;DHT22;4867;48.112;11.622;2022-07-06T11:53:47;26.00;95.30
9658;DHT22;4867;48.112;11.622;2022-07-06T11:56:22;26.30;97.50
9658;DHT22;4867;48.112;11.622;2022-07-06T11:58:53;26.80;96.80
9658;DHT22;4867;48.112;11.622;2022-07-06T12:01:21;27.00;96.90
9658;DHT22;4867;48.112;11.622;2022-07-06T12:03:50;26.40;94.00
9658;DHT22;4867;48.112;11.622;2022-07-06T12:06:25;25.70;95.70
9658;DHT22;4867;48.112;11.622;2022-07-06T12:08:54;25.90;95.70
9658;DHT22;4867;48.112;11.622;2022-07-06T12:11:26;25.60;95.40
9658;DHT22;4867;48.112;11.622;2022-07-06T12:14:16;25.50;95.60
9658;DHT22;4867;48.112;11.622;2022-07-06T12:16:44;25.30;95.80
9658;DHT22;4867;48.112;11.622;2022-07-06T12:19:12;25.10;96.20
9658;DHT22;4867;48.112;11.622;2022-07-06T12:21:47;25.40;95.90
9658;DHT22;4867;48.112;11.622;2022-07-06T12:24:21;25.40;96.00
9658;DHT22;4867;48.112;11.622;2022-07-06T12:26:49;25.40;95.50
9658;DHT22;4867;48.112;11.622;2022-07-06T12:29:17;25.60;95.50
9658;DHT22;4867;48.112;11.622;2022-07-06T12:31:53;25.90;95.40
9658;DHT22;4867;48.112;11.622;2022-07-06T12:34:22;26.20;96.70
9658;DHT22;4867;48.112;11.622;2022-07-06T12:36:50;25.80;93.80
9658;DHT22;4867;48.112;11.622;2022-07-06T12:39:20;25.30;94.90
9658;DHT22;4867;48.112;11.622;2022-07-06T12:44:24;25.00;94.20
9658;DHT22;4867;48.112;11.622;2022-07-06T12:47:05;25.10;93.00
9658;DHT22;4867;48.112;11.622;2022-07-06T12:49:32;25.00;94.30
9658;DHT22;4867;48.112;11.622;2022-07-06T12:54:44;25.20;96.10
9658;DHT22;4867;48.112;11.622;2022-07-06T12:57:20;24.70;94.00
9658;DHT22;4867;48.112;11.622;2022-07-06T13:02:23;24.50;95.00
9658;DHT22;4867;48.112;11.622;2022-07-06T13:05:12;24.50;95.30
9658;DHT22;4867;48.112;11.622;2022-07-06T13:07:47;24.60;95.60
9658;DHT22;4867;48.112;11.622;2022-07-06T13:10:15;24.80;94.30
9658;DHT22;4867;48.112;11.622;2022-07-06T13:12:43;25.00;95.70
9658;DHT22;4867;48.112;11.622;2022-07-06T13:15:10;25.40;95.50
9658;DHT22;4867;48.112;11.622;2022-07-06T13:17:37;25.40;94.20
9658;DHT22;4867;48.112;11.622;2022-07-06T13:20:05;25.60;95.80
9658;DHT22;4867;48.112;11.622;2022-07-06T13:22:32;25.70;94.40
9658;DHT22;4867;48.112;11.622;2022-07-06T13:24:59;25.80;95.00
9658;DHT22;4867;48.112;11.622;2022-07-06T13:27:26;25.50;93.90
9658;DHT22;4867;48.112;11.622;2022-07-06T13:29:54;25.40;94.60
9658;DHT22;4867;48.112;11.622;2022-07-06T13:32:21;25.40;95.50
9658;DHT22;4867;48.112;11.622;2022-07-06T13:34:48;25.70;95.20
9658;DHT22;4867;48.112;11.622;2022-07-06T13:37:15;25.70;94.40
9658;DHT22;4867;48.112;11.622;2022-07-06T13:39:42;25.50;92.60
9658;DHT22;4867;48.112;11.622;2022-07-06T13:42:09;25.40;92.80
9658;DHT22;4867;48.112;11.622;2022-07-06T13:44:36;25.40;93.50
9658;DHT22;4867;48.112;11.622;2022-07-06T13:47:03;25.70;93.20
9658;DHT22;4867;48.112;11.622;2022-07-06T13:49:30;25.90;93.70
9658;DHT22;4867;48.112;11.622;2022-07-06T13:51:58;25.70;92.80
9658;DHT22;4867;48.112;11.622;2022-07-06T13:54:31;25.80;93.50
9658;DHT22;4867;48.112;11.622;2022-07-06T13:57:02;25.90;92.90
9658;DHT22;4867;48.112;11.622;2022-07-06T13:59:29;26.10;93.70
9658;DHT22;4867;48.112;11.622;2022-07-06T14:01:57;26.30;94.20
9658;DHT22;4867;48.112;11.622;2022-07-06T14:04:24;26.10;92.70
9658;DHT22;4867;48.112;11.622;2022-07-06T14:06:51;25.80;93.10
9658;DHT22;4867;48.112;11.622;2022-07-06T14:09:18;25.90;93.90
9658;DHT22;4867;48.112;11.622;2022-07-06T14:11:45;25.80;93.50
9658;DHT22;4867;48.112;11.622;2022-07-06T14:14:12;25.50;92.80
9658;DHT22;4867;48.112;11.622;2022-07-06T14:16:39;25.50;92.40
9658;DHT22;4867;48.112;11.622;2022-07-06T14:19:10;25.60;93.40
9658;DHT22;4867;48.112;11.622;2022-07-06T14:21:42;25.90;94.20
9658;DHT22;4867;48.112;11.622;2022-07-06T14:24:09;26.00;93.20
9658;DHT22;4867;48.112;11.622;2022-07-06T14:26:36;25.70;92.30
9658;DHT22;4867;48.112;11.622;2022-07-06T14:29:02;25.60;91.80
9658;DHT22;4867;48.112;11.622;2022-07-06T14:31:29;25.60;92.50
9658;DHT22;4867;48.112;11.622;2022-07-06T14:33:56;25.70;91.50
9658;DHT22;4867;48.112;11.622;2022-07-06T14:36:23;25.70;92.50
9658;DHT22;4867;48.112;11.622;2022-07-06T14:38:49;25.80;92.40
9658;DHT22;4867;48.112;11.622;2022-07-06T14:41:16;25.80;92.10
9658;DHT22;4867;48.112;11.622;2022-07-06T14:43:43;25.90;92.30
9658;DHT22;4867;48.112;11.622;2022-07-06T14:46:10;25.70;91.50
9658;DHT22;4867;48.112;11.622;2022-07-06T14:48:37;25.80;92.00
9658;DHT22;4867;48.112;11.622;2022-07-06T14:51:04;25.70;91.30
9658;DHT22;4867;48.112;11.622;2022-07-06T14:53:31;25.70;92.10
9658;DHT22;4867;48.112;11.622;2022-07-06T14:55:58;25.70;91.00
9658;DHT22;4867;48.112;11.622;2022-07-06T14:58:25;25.80;91.30
9658;DHT22;4867;48.112;11.622;2022-07-06T15:00:52;26.20;93.20
9658;DHT22;4867;48.112;11.622;2022-07-06T15:03:26;26.30;92.10
9658;DHT22;4867;48.112;11.622;2022-07-06T15:05:53;26.20;90.90
9658;DHT22;4867;48.112;11.622;2022-07-06T15:08:20;25.80;91.20
9658;DHT22;4867;48.112;11.622;2022-07-06T15:10:47;25.70;91.40
9658;DHT22;4867;48.112;11.622;2022-07-06T15:13:15;25.40;91.80
9658;DHT22;4867;48.112;11.622;2022-07-06T15:15:42;25.30;91.80
9658;DHT22;4867;48.112;11.622;2022-07-06T15:18:26;25.30;91.40
9658;DHT22;4867;48.112;11.622;2022-07-06T15:20:53;25.50;92.20
9658;DHT22;4867;48.112;11.622;2022-07-06T15:23:20;25.70;92.60
9658;DHT22;4867;48.112;11.622;2022-07-06T15:25:47;25.70;90.80
9658;DHT22;4867;48.112;11.622;2022-07-06T15:28:22;25.80;90.70
9658;DHT22;4867;48.112;11.622;2022-07-06T15:30:50;26.10;90.70
9658;DHT22;4867;48.112;11.622;2022-07-06T15:33:17;26.10;91.50
9658;DHT22;4867;48.112;11.622;2022-07-06T15:35:44;25.90;90.90
9658;DHT22;4867;48.112;11.622;2022-07-06T15:38:11;25.80;89.70
9658;DHT22;4867;48.112;11.622;2022-07-06T15:40:38;25.80;90.10
9658;DHT22;4867;48.112;11.622;2022-07-06T15:43:11;25.70;90.10
9658;DHT22;4867;48.112;11.622;2022-07-06T15:45:38;25.90;90.70
9658;DHT22;4867;48.112;11.622;2022-07-06T15:48:06;26.00;88.80
9658;DHT22;4867;48.112;11.622;2022-07-06T15:50:33;26.20;90.30
9658;DHT22;4867;48.112;11.622;2022-07-06T15:53:02;26.60;91.10
9658;DHT22;4867;48.112;11.622;2022-07-06T15:55:29;26.20;89.40
9658;DHT22;4867;48.112;11.622;2022-07-06T15:57:56;26.20;90.60
9658;DHT22;4867;48.112;11.622;2022-07-06T16:00:23;26.50;90.70
9658;DHT22;4867;48.112;11.622;2022-07-06T16:02:50;27.00;90.00
9658;DHT22;4867;48.112;11.622;2022-07-06T16:05:17;26.90;88.10
9658;DHT22;4867;48.112;11.622;2022-07-06T16:07:47;26.50;89.70
9658;DHT22;4867;48.112;11.622;2022-07-06T16:10:34;26.30;87.80